Time;durP1;ratioP1;P1;durP2;ratioP2;P2;SDS_P1;SDS_P2;PMS_P1;PMS_P2;Temp;Humidity;BMP_temperature;BMP_pressure;BME280_temperature;BME280_humidity;BME280_pressure;Samples;Min_cycle;Max_cycle;Signal;HPM_P1;HPM_P2
2022/01/29 00:00:33;;;;;;;1999.90;999.90;;;;;;;7.26;100.00;102841.63;5002067;28;20394;-68
2022/01/29 00:02:58;;;;;;;1999.90;999.90;;;;;;;7.29;100.00;102837.22;5007495;28;20053;-68
2022/01/29 00:05:24;;;;;;;1999.90;999.90;;;;;;;7.32;100.00;102828.41;5002802;28;20104;-68
2022/01/29 00:07:49;;;;;;;1999.90;999.90;;;;;;;7.31;100.00;102835.44;4999179;28;20061;-69
2022/01/29 00:10:14;;;;;;;1999.90;999.90;;;;;;;7.46;100.00;102829.31;5007366;28;20041;-68
2022/01/29 00:12:41;;;;;;;1999.90;999.90;;;;;;;7.37;100.00;102826.66;5002687;28;20118;-69
2022/01/29 00:15:07;;;;;;;1999.90;999.90;;;;;;;7.38;100.00;102821.38;5005839;28;20049;-69
2022/01/29 00:17:33;;;;;;;1999.90;999.90;;;;;;;7.47;100.00;102817.84;5005540;28;20490;-69
2022/01/29 00:19:59;;;;;;;1999.90;999.90;;;;;;;7.49;100.00;102813.44;5011061;28;20034;-69
2022/01/29 00:22:24;;;;;;;1999.90;999.90;;;;;;;7.41;100.00;102809.91;5002493;28;20203;-69
2022/01/29 00:24:50;;;;;;;1999.90;999.90;;;;;;;7.38;100.00;102801.97;5003879;28;20074;-69
2022/01/29 00:27:18;;;;;;;1999.90;999.90;;;;;;;7.36;100.00;102794.03;5008902;28;20054;-69
2022/01/29 00:29:43;;;;;;;1999.90;999.90;;;;;;;7.42;100.00;102793.19;5002188;28;20025;-69
2022/01/29 00:32:10;;;;;;;1999.90;999.90;;;;;;;7.48;100.00;102801.13;5001222;28;20084;-69
2022/01/29 00:34:36;;;;;;;1999.90;999.90;;;;;;;7.41;100.00;102786.13;5002178;28;20033;-69
2022/01/29 00:37:02;;;;;;;1999.90;999.90;;;;;;;7.43;100.00;102787.91;5004399;28;20461;-68
2022/01/29 00:39:28;;;;;;;1999.90;999.90;;;;;;;7.39;100.00;102791.41;5013380;28;20037;-69
2022/01/29 00:41:53;;;;;;;1999.90;999.90;;;;;;;7.38;100.00;102789.66;5008739;28;20084;-69
2022/01/29 00:44:18;;;;;;;1999.90;999.90;;;;;;;7.38;100.00;102786.13;5000632;28;20064;-69
2022/01/29 00:46:43;;;;;;;1999.90;999.90;;;;;;;7.38;100.00;102780.84;4999522;28;20544;-69
2022/01/29 00:49:11;;;;;;;1999.90;999.90;;;;;;;7.37;100.00;102779.09;5006031;28;20022;-69
2022/01/29 00:51:37;;;;;;;1999.90;999.90;;;;;;;7.41;100.00;102778.19;5007212;28;20096;-69
2022/01/29 00:54:02;;;;;;;1999.90;999.90;;;;;;;7.42;100.00;102770.25;4995063;28;20030;-70
2022/01/29 00:56:28;;;;;;;1999.90;999.90;;;;;;;7.40;100.00;102779.09;4999291;28;20019;-69
2022/01/29 00:58:53;;;;;;;1999.90;999.90;;;;;;;7.40;100.00;102771.16;5010948;28;20083;-69
2022/01/29 01:01:18;;;;;;;1999.90;999.90;;;;;;;7.49;100.00;102776.44;5002014;28;20105;-69
2022/01/29 01:03:44;;;;;;;1999.90;999.90;;;;;;;7.40;100.00;102773.78;5004975;28;20559;-69
2022/01/29 01:06:09;;;;;;;1999.90;999.90;;;;;;;7.35;100.00;102772.91;5006109;28;20032;-69
2022/01/29 01:08:34;;;;;;;1999.90;999.90;;;;;;;7.36;100.00;102770.25;5002546;28;20402;-69
2022/01/29 01:11:02;;;;;;;1999.90;999.90;;;;;;;7.27;100.00;102770.25;5007443;28;20588;-68
2022/01/29 01:13:27;;;;;;;1999.90;999.90;;;;;;;7.27;100.00;102745.56;5002569;28;20473;-68
2022/01/29 01:15:53;;;;;;;1999.90;999.90;;;;;;;7.23;100.00;102749.13;5000818;28;20041;-69
2022/01/29 01:18:18;;;;;;;1999.90;999.90;;;;;;;7.23;100.00;102741.19;5006036;28;20030;-69
2022/01/29 01:20:43;;;;;;;1999.90;999.90;;;;;;;7.16;100.00;102742.94;5005996;28;20034;-70
2022/01/29 01:23:09;;;;;;;1999.90;999.90;;;;;;;7.23;100.00;102730.63;5000634;28;20030;-69
2022/01/29 01:25:34;;;;;;;1999.90;999.90;;;;;;;7.13;100.00;102742.94;5006538;28;20136;-69
2022/01/29 01:27:59;;;;;;;1999.90;999.90;;;;;;;7.25;100.00;102739.41;5009469;28;20045;-70
2022/01/29 01:30:33;;;;;;;1999.90;999.90;;;;;;;7.20;100.00;102734.13;5012855;28;20034;-70
2022/01/29 01:33:54;;;;;;;1999.90;999.90;;;;;;;7.26;100.00;102733.25;5012920;28;20053;-70
2022/01/29 01:36:28;;;;;;;1999.90;999.90;;;;;;;7.28;100.00;102723.56;5014696;28;20034;-69
2022/01/29 01:39:01;;;;;;;1999.90;999.90;;;;;;;7.26;100.00;102720.03;5013533;28;20096;-69
2022/01/29 01:41:27;;;;;;;1999.90;999.90;;;;;;;7.28;100.00;102718.28;5014546;28;20033;-70
2022/01/29 01:44:03;;;;;;;1999.90;999.90;;;;;;;7.25;100.00;102727.09;5013092;28;20041;-69
2022/01/29 01:46:29;;;;;;;1999.90;999.90;;;;;;;7.28;100.00;102719.16;5014274;28;20036;-69
2022/01/29 01:48:55;;;;;;;1999.90;999.90;;;;;;;7.26;100.00;102730.63;5013844;28;20026;-69
2022/01/29 01:51:21;;;;;;;1999.90;999.90;;;;;;;7.26;100.00;102714.75;5013817;28;20053;-69
2022/01/29 01:53:47;;;;;;;1999.90;999.90;;;;;;;7.30;100.00;102725.31;5014009;28;20478;-70
2022/01/29 01:56:13;;;;;;;1999.90;999.90;;;;;;;7.34;100.00;102718.28;5013704;28;20029;-69
2022/01/29 01:58:38;;;;;;;1999.90;999.90;;;;;;;7.35;100.00;102709.47;5012716;28;20029;-69
2022/01/29 02:01:03;;;;;;;1999.90;999.90;;;;;;;7.39;100.00;102705.97;5012446;28;20057;-69
2022/01/29 02:03:29;;;;;;;1999.90;999.90;;;;;;;7.41;100.00;102702.41;5013478;28;20057;-69
2022/01/29 02:05:55;;;;;;;1999.90;999.90;;;;;;;7.35;100.00;102701.53;5013558;28;20057;-69
2022/01/29 02:08:20;;;;;;;1999.90;999.90;;;;;;;7.36;100.00;102698.00;5013779;28;20353;-69
2022/01/29 02:10:47;;;;;;;1999.90;999.90;;;;;;;7.42;100.00;102705.97;5013469;28;20037;-70
2022/01/29 02:13:13;;;;;;;1999.90;999.90;;;;;;;7.42;100.00;102690.09;5013653;28;20030;-69
2022/01/29 02:15:38;;;;;;;1999.90;999.90;;;;;;;7.41;100.00;102689.22;5012731;28;20037;-70
2022/01/29 02:18:04;;;;;;;1999.90;999.90;;;;;;;7.45;100.00;102695.38;5013384;28;20018;-68
2022/01/29 02:20:32;;;;;;;1999.90;999.90;;;;;;;7.45;100.00;102683.03;5012140;28;20541;-69
2022/01/29 02:23:00;;;;;;;1999.90;999.90;;;;;;;7.46;100.00;102678.63;5013247;28;20117;-69
2022/01/29 02:25:43;;;;;;;1999.90;999.90;;;;;;;7.51;100.00;102690.09;5012130;28;20125;-69
2022/01/29 02:28:14;;;;;;;1999.90;999.90;;;;;;;7.44;100.00;102683.03;5013815;28;20054;-70
2022/01/29 02:30:42;;;;;;;1999.90;999.90;;;;;;;7.56;100.00;102677.75;5013508;28;20363;-69
2022/01/29 02:33:12;;;;;;;1999.90;999.90;;;;;;;7.63;100.00;102674.19;5013358;28;20037;-69
2022/01/29 02:35:42;;;;;;;1999.90;999.90;;;;;;;7.55;100.00;102675.97;5013484;28;20030;-69
2022/01/29 02:38:12;;;;;;;1999.90;999.90;;;;;;;7.64;100.00;102662.75;5012235;28;20441;-69
2022/01/29 02:40:46;;;;;;;1999.90;999.90;;;;;;;7.69;100.00;102659.19;5013473;28;20029;-69
2022/01/29 02:43:18;;;;;;;1999.90;999.90;;;;;;;7.66;100.00;102653.91;5013737;28;20145;-70
2022/01/29 02:45:44;;;;;;;1999.90;999.90;;;;;;;7.69;100.00;102647.72;5013252;28;20112;-69
2022/01/29 02:48:10;;;;;;;1999.90;999.90;;;;;;;7.68;100.00;102651.28;5013428;28;20186;-69
2022/01/29 02:50:36;;;;;;;1999.90;999.90;;;;;;;7.67;100.00;102634.50;5013106;28;20049;-69
2022/01/29 02:53:02;;;;;;;1999.90;999.90;;;;;;;7.76;100.00;102638.91;5012879;28;20446;-69
2022/01/29 02:55:29;;;;;;;1999.90;999.90;;;;;;;7.75;100.00;102622.16;5013261;28;20057;-69
2022/01/29 02:57:55;;;;;;;1999.90;999.90;;;;;;;7.75;100.00;102622.16;5012195;28;20061;-70
2022/01/29 03:00:20;;;;;;;1999.90;999.90;;;;;;;7.77;100.00;102619.50;5012033;28;20169;-69
2022/01/29 03:02:45;;;;;;;1999.90;999.90;;;;;;;7.74;100.00;102608.94;5011996;28;20069;-70
2022/01/29 03:05:11;;;;;;;1999.90;999.90;;;;;;;7.77;100.00;102619.50;5013213;28;20022;-69
2022/01/29 03:07:38;;;;;;;1999.90;999.90;;;;;;;7.81;100.00;102608.03;5013302;28;20037;-69
2022/01/29 03:10:04;;;;;;;1999.90;999.90;;;;;;;7.81;100.00;102613.34;5013574;28;20034;-69
2022/01/29 03:12:29;;;;;;;1999.90;999.90;;;;;;;7.90;100.00;102609.75;5011658;28;20389;-69
2022/01/29 03:14:55;;;;;;;1999.90;999.90;;;;;;;7.86;100.00;102605.38;5012977;28;20033;-70
2022/01/29 03:17:20;;;;;;;1999.90;999.90;;;;;;;7.91;100.00;102601.81;5011716;28;20065;-70
2022/01/29 03:19:45;;;;;;;1999.90;999.90;;;;;;;7.94;100.00;102593.00;5012978;28;20492;-70
2022/01/29 03:22:46;;;;;;;1999.90;999.90;;;;;;;7.92;100.00;102602.72;5007153;28;20566;-70
2022/01/29 03:25:11;;;;;;;1999.90;999.90;;;;;;;7.97;100.00;102588.59;4994472;28;20034;-69
2022/01/29 03:27:36;;;;;;;1999.90;999.90;;;;;;;7.93;100.00;102586.81;4994851;28;20045;-70
2022/01/29 03:30:04;;;;;;;1999.90;999.90;;;;;;;7.97;100.00;102588.59;5006473;28;20137;-69
2022/01/29 03:32:30;;;;;;;1999.90;999.90;;;;;;;8.00;100.00;102579.75;5016667;28;20104;-69
2022/01/29 03:34:55;;;;;;;1999.90;999.90;;;;;;;8.05;100.00;102589.44;5016626;28;20145;-70
2022/01/29 03:37:20;;;;;;;1999.90;999.90;;;;;;;8.07;100.00;102577.06;5016455;28;20022;-69
2022/01/29 03:39:47;;;;;;;1999.90;999.90;;;;;;;8.07;100.00;102576.19;5016307;28;20057;-69
2022/01/29 03:42:13;;;;;;;1999.90;999.90;;;;;;;8.10;100.00;102581.47;5016693;28;20041;-69
2022/01/29 03:44:39;;;;;;;1999.90;999.90;;;;;;;8.17;100.00;102567.31;5016493;28;20022;-69
2022/01/29 03:47:05;;;;;;;1999.90;999.90;;;;;;;8.08;100.00;102583.25;5014972;28;20383;-70
2022/01/29 03:49:30;;;;;;;1999.90;999.90;;;;;;;8.20;100.00;102567.28;5016094;28;20112;-70
2022/01/29 03:51:55;;;;;;;1999.90;999.90;;;;;;;8.21;100.00;102575.22;5015865;28;20135;-70
2022/01/29 03:54:41;;;;;;;1999.90;999.90;;;;;;;8.25;100.00;102570.81;5015824;28;20104;-69
2022/01/29 03:57:06;;;;;;;1999.90;999.90;;;;;;;8.21;100.00;102566.41;5016140;28;20030;-69
2022/01/29 04:00:25;;;;;;;1999.90;999.90;;;;;;;8.16;100.00;102563.81;5015998;28;20033;-69
2022/01/29 04:02:50;;;;;;;1999.90;999.90;;;;;;;8.23;100.00;102557.59;5016312;28;20069;-69
2022/01/29 04:05:15;;;;;;;1999.90;999.90;;;;;;;8.32;100.00;102564.63;5014359;28;20026;-69
2022/01/29 04:07:41;;;;;;;1999.90;999.90;;;;;;;8.25;100.00;102553.19;5015686;28;20053;-70
2022/01/29 04:10:07;;;;;;;1999.90;999.90;;;;;;;8.21;100.00;102553.19;5015590;28;20049;-69
2022/01/29 04:12:39;;;;;;;1999.90;999.90;;;;;;;8.27;100.00;102555.81;5015547;28;20065;-69
2022/01/29 04:15:05;;;;;;;1999.90;999.90;;;;;;;8.31;100.00;102550.50;5015879;28;20040;-70
2022/01/29 04:17:30;;;;;;;1999.90;999.90;;;;;;;8.29;100.00;102549.63;5014110;28;20025;-69
2022/01/29 04:19:55;;;;;;;1999.90;999.90;;;;;;;8.30;100.00;102553.16;5015557;28;20026;-70
2022/01/29 04:22:20;;;;;;;1999.90;999.90;;;;;;;8.36;100.00;102540.75;5015600;28;20125;-69
2022/01/29 04:24:46;;;;;;;1999.90;999.90;;;;;;;8.34;100.00;102549.59;5014245;28;20026;-69
2022/01/29 04:27:21;;;;;;;1999.90;999.90;;;;;;;8.37;100.00;102561.03;5015470;28;20061;-70
2022/01/29 04:29:55;;;;;;;1999.90;999.90;;;;;;;8.39;100.00;102551.31;5015794;28;20084;-69
2022/01/29 04:32:30;;;;;;;1999.90;999.90;;;;;;;8.35;100.00;102546.91;5015940;28;20055;-69
2022/01/29 04:34:55;;;;;;;1999.90;999.90;;;;;;;8.41;100.00;102541.63;5015572;28;20037;-70
2022/01/29 04:37:21;;;;;;;1999.90;999.90;;;;;;;8.45;100.00;102526.56;5014856;28;20057;-69
2022/01/29 04:39:46;;;;;;;1999.90;999.90;;;;;;;8.38;100.00;102517.81;5014449;28;20438;-69
2022/01/29 04:42:11;;;;;;;1999.90;999.90;;;;;;;8.41;100.00;102507.19;5014984;28;20033;-70
2022/01/29 04:44:37;;;;;;;1999.90;999.90;;;;;;;8.41;100.00;102523.09;5015047;28;20482;-70
2022/01/29 04:47:02;;;;;;;1999.90;999.90;;;;;;;8.43;100.00;102513.34;5013518;28;20132;-70
2022/01/29 04:49:27;;;;;;;1999.90;999.90;;;;;;;8.34;100.00;102509.88;5014864;28;20026;-70
2022/01/29 04:51:53;;;;;;;1999.90;999.90;;;;;;;8.43;100.00;102508.03;5014559;28;20033;-70
2022/01/29 04:54:18;;;;;;;1999.90;999.90;;;;;;;8.48;100.00;102510.66;5014715;28;20544;-70
2022/01/29 04:56:43;;;;;;;1999.90;999.90;;;;;;;8.53;100.00;102515.03;5015413;28;20026;-70
2022/01/29 04:59:09;;;;;;;1999.90;999.90;;;;;;;8.47;100.00;102517.75;5013797;28;20421;-70
2022/01/29 05:01:34;;;;;;;1999.90;999.90;;;;;;;8.50;100.00;102506.22;5014309;28;20504;-69
2022/01/29 05:03:59;;;;;;;1999.90;999.90;;;;;;;8.46;100.00;102501.88;5014287;28;20022;-69
2022/01/29 05:06:24;;;;;;;1999.90;999.90;;;;;;;8.50;100.00;102503.59;5014510;28;20083;-70
2022/01/29 05:08:50;;;;;;;1999.90;999.90;;;;;;;8.42;100.00;102506.28;5014498;28;20048;-69
2022/01/29 05:11:17;;;;;;;1999.90;999.90;;;;;;;8.46;100.00;102513.31;5014664;28;20124;-67
2022/01/29 05:13:42;;;;;;;1999.90;999.90;;;;;;;8.48;100.00;102506.25;5013190;28;20030;-68
2022/01/29 05:27:14;;;;;;;1999.90;999.90;;;;;;;8.46;100.00;102499.22;5014438;28;20401;-68
2022/01/29 05:29:39;;;;;;;1999.90;999.90;;;;;;;8.46;100.00;102500.06;5012924;28;20025;-69
2022/01/29 05:32:07;;;;;;;1999.90;999.90;;;;;;;8.51;100.00;102506.22;5012682;28;20037;-69
2022/01/29 05:34:34;;;;;;;1999.90;999.90;;;;;;;8.53;100.00;102516.78;5013955;28;20026;-69
2022/01/29 05:37:00;;;;;;;1999.90;999.90;;;;;;;8.56;100.00;102509.72;5014287;28;20481;-69
2022/01/29 05:39:25;;;;;;;1999.90;999.90;;;;;;;8.58;100.00;102517.66;5012675;28;20113;-69
2022/01/29 05:41:51;;;;;;;1999.90;999.90;;;;;;;8.60;100.00;102511.47;5012690;28;20147;-68
2022/01/29 05:44:17;;;;;;;1999.90;999.90;;;;;;;8.54;100.00;102495.59;5012614;28;20119;-69
2022/01/29 05:46:42;;;;;;;1999.90;999.90;;;;;;;8.54;100.00;102510.63;5015017;28;20057;-70
2022/01/29 05:49:08;;;;;;;1999.90;999.90;;;;;;;8.50;100.00;102504.47;5014552;28;20036;-77
2022/01/29 05:52:08;;;;;;;1999.90;999.90;;;;;;;8.49;100.00;102510.66;5012640;28;20478;-69
2022/01/29 05:54:34;;;;;;;1999.90;999.90;;;;;;;8.45;100.00;102508.91;5012668;28;20488;-69
2022/01/29 05:56:59;;;;;;;1999.90;999.90;;;;;;;8.48;100.00;102500.06;5013876;28;20030;-69
2022/01/29 05:59:24;;;;;;;1999.90;999.90;;;;;;;8.50;100.00;102515.06;5013830;28;20045;-69
2022/01/29 06:08:07;;;;;;;1999.90;999.90;;;;;;;8.53;100.00;102493.84;5070644;28;20035;-68
2022/01/29 06:11:21;;;;;;;1999.90;999.90;;;;;;;8.51;100.00;102490.31;5070533;28;20113;-68
2022/01/29 06:13:46;;;;;;;1999.90;999.90;;;;;;;8.50;100.00;102487.69;5068909;28;20035;-69
2022/01/29 06:16:11;;;;;;;1999.90;999.90;;;;;;;8.51;100.00;102486.81;5070419;28;20379;-70
2022/01/29 06:18:37;;;;;;;1999.90;999.90;;;;;;;8.55;100.00;102493.84;5069932;28;20079;-69
2022/01/29 06:21:08;;;;;;;1999.90;999.90;;;;;;;8.60;100.00;102474.38;5063976;28;20687;-70
2022/01/29 06:23:36;;;;;;;1999.90;999.90;;;;;;;8.57;100.00;102492.91;5060542;28;20465;-69
2022/01/29 06:26:04;;;;;;;1999.90;999.90;;;;;;;8.61;100.00;102472.59;5069818;28;20020;-70
2022/01/29 06:28:30;;;;;;;1999.90;999.90;;;;;;;8.62;100.00;102467.28;5064264;28;20029;-70
2022/01/29 06:30:56;;;;;;;1999.90;999.90;;;;;;;8.65;100.00;102461.97;5065738;28;20460;-70
2022/01/29 06:33:21;;;;;;;1999.90;999.90;;;;;;;8.68;100.00;102461.06;5060483;28;20033;-70
2022/01/29 06:35:46;;;;;;;1999.90;999.90;;;;;;;8.65;100.00;102458.44;5057743;28;20029;-67
2022/01/29 06:38:13;;;;;;;1999.90;999.90;;;;;;;8.67;100.00;102454.00;5068456;28;20476;-69
2022/01/29 06:40:40;;;;;;;1999.90;999.90;;;;;;;8.73;100.00;102460.13;5061220;28;20531;-69
2022/01/29 06:43:05;;;;;;;1999.90;999.90;;;;;;;8.72;100.00;102457.47;5068183;28;20059;-69
2022/01/29 06:45:32;;;;;;;1999.90;999.90;;;;;;;8.74;100.00;102453.94;5065327;28;20053;-69
2022/01/29 06:47:58;;;;;;;1999.90;999.90;;;;;;;8.72;100.00;102442.47;5059717;28;20053;-69
2022/01/29 06:50:25;;;;;;;1999.90;999.90;;;;;;;8.67;100.00;102444.28;5061115;28;20329;-70
2022/01/29 06:52:50;;;;;;;1999.90;999.90;;;;;;;8.65;100.00;102447.84;5050667;28;20052;-70
2022/01/29 06:55:15;;;;;;;1999.90;999.90;;;;;;;8.71;100.00;102431.91;5048281;28;20029;-70
2022/01/29 06:57:41;;;;;;;1999.90;999.90;;;;;;;8.79;100.00;102445.94;5049335;28;20029;-69
2022/01/29 07:00:07;;;;;;;1999.90;999.90;;;;;;;8.84;100.00;102452.94;5049589;28;20064;-73
2022/01/29 07:02:34;;;;;;;1999.90;999.90;;;;;;;8.88;100.00;102451.16;5048190;28;20045;-73
2022/01/29 07:04:59;;;;;;;1999.90;999.90;;;;;;;8.84;100.00;102450.28;5049540;28;20037;-70
2022/01/29 07:07:26;;;;;;;1999.90;999.90;;;;;;;8.77;100.00;102456.56;5049187;28;20548;-70
2022/01/29 07:09:51;;;;;;;1999.90;999.90;;;;;;;8.79;100.00;102443.31;5049475;28;20389;-70
2022/01/29 07:12:16;;;;;;;1999.90;999.90;;;;;;;8.75;100.00;102450.41;5049258;28;20033;-78
2022/01/29 07:14:42;;;;;;;1999.90;999.90;;;;;;;8.77;100.00;102442.44;5039525;28;20034;-70
2022/01/29 07:17:11;;;;;;;1999.90;999.90;;;;;;;8.84;100.00;102446.78;5035711;28;20466;-70
2022/01/29 07:19:37;;;;;;;1999.90;999.90;;;;;;;8.84;100.00;102437.03;5035677;28;20018;-70
2022/01/29 07:22:03;;;;;;;1999.90;999.90;;;;;;;8.85;100.00;102445.88;5035755;28;20397;-70
2022/01/29 07:24:29;;;;;;;1999.90;999.90;;;;;;;8.79;100.00;102443.31;5035618;28;20052;-71
2022/01/29 07:26:54;;;;;;;1999.90;999.90;;;;;;;8.72;100.00;102447.78;5038169;28;20030;-70
2022/01/29 07:29:19;;;;;;;1999.90;999.90;;;;;;;8.75;100.00;102441.56;5035863;28;20032;-69
2022/01/29 07:31:45;;;;;;;1999.90;999.90;;;;;;;8.66;100.00;102437.25;5035853;28;20027;-70
2022/01/29 07:34:10;;;;;;;1999.90;999.90;;;;;;;8.71;100.00;102431.91;5036004;28;20017;-69
2022/01/29 07:36:35;;;;;;;1999.90;999.90;;;;;;;8.65;100.00;102424.88;5050962;28;20036;-71
2022/01/29 07:39:01;;;;;;;1999.90;999.90;;;;;;;8.65;100.00;102424.88;5035810;28;20021;-70
2022/01/29 07:41:26;;;;;;;1999.90;999.90;;;;;;;8.68;100.00;102424.84;5035377;28;20343;-68
2022/01/29 07:43:51;;;;;;;1999.90;999.90;;;;;;;8.70;100.00;102419.53;5052838;28;20101;-69
2022/01/29 07:46:17;;;;;;;1999.90;999.90;;;;;;;8.74;100.00;102418.63;5046647;28;20087;-68
2022/01/29 07:48:42;;;;;;;1999.90;999.90;;;;;;;8.72;100.00;102408.03;5044781;28;20488;-71
2022/01/29 07:51:07;;;;;;;1999.90;999.90;;;;;;;8.80;100.00;102414.16;5046125;28;20409;-68
2022/01/29 07:53:33;;;;;;;1999.90;999.90;;;;;;;8.82;100.00;102409.72;5049041;28;20040;-69
2022/01/29 07:55:58;;;;;;;1999.90;999.90;;;;;;;8.80;100.00;102398.25;5050361;28;20033;-69
2022/01/29 07:58:24;;;;;;;1999.90;999.90;;;;;;;8.96;100.00;102412.19;5043439;28;20029;-69
2022/01/29 08:00:49;;;;;;;1999.90;999.90;;;;;;;8.93;100.00;102393.69;5036880;28;20108;-69
2022/01/29 08:03:14;;;;;;;1999.90;999.90;;;;;;;8.93;100.00;102391.03;5043715;28;20049;-69
2022/01/29 08:05:39;;;;;;;1999.90;999.90;;;;;;;9.01;100.00;102384.75;5035691;28;20488;-69
2022/01/29 08:08:05;;;;;;;1999.90;999.90;;;;;;;9.03;100.00;102401.50;5045833;28;20112;-69
2022/01/29 08:10:30;;;;;;;1999.90;999.90;;;;;;;9.05;100.00;102398.84;5043686;28;20490;-69
2022/01/29 08:12:56;;;;;;;1999.90;999.90;;;;;;;9.07;100.00;102384.69;5051668;28;20025;-69
2022/01/29 08:15:21;;;;;;;1999.90;999.90;;;;;;;9.07;100.00;102382.03;5045100;28;20032;-69
2022/01/29 08:17:46;;;;;;;1999.90;999.90;;;;;;;9.10;100.00;102387.31;5054900;28;20431;-70
2022/01/29 08:20:12;;;;;;;1999.90;999.90;;;;;;;9.14;100.00;102388.13;5055965;28;20107;-71
2022/01/29 08:22:37;;;;;;;1999.90;999.90;;;;;;;9.21;100.00;102377.44;5062913;28;20029;-74
2022/01/29 08:25:04;;;;;;;1999.90;999.90;;;;;;;9.22;100.00;102371.22;5056265;28;20028;-73
2022/01/29 08:27:30;;;;;;;1999.90;999.90;;;;;;;9.22;100.00;102381.84;5055746;28;20094;-69
2022/01/29 08:29:55;;;;;;;1999.90;999.90;;;;;;;9.19;100.00;102384.53;5051369;28;20092;-70
2022/01/29 08:32:21;;;;;;;1999.90;999.90;;;;;;;9.18;100.00;102390.75;5034335;28;20079;-70
2022/01/29 08:34:47;;;;;;;1999.90;999.90;;;;;;;9.19;100.00;102400.44;5033491;28;20040;-70
2022/01/29 08:37:12;;;;;;;1999.90;999.90;;;;;;;9.16;100.00;102394.28;5032974;28;20032;-70
2022/01/29 08:39:39;;;;;;;1999.90;999.90;;;;;;;9.30;100.00;102385.28;5035142;28;20029;-71
2022/01/29 08:42:05;;;;;;;1999.90;999.90;;;;;;;9.23;100.00;102382.72;5037693;28;20033;-71
2022/01/29 08:44:30;;;;;;;1999.90;999.90;;;;;;;9.19;100.00;102381.00;5054056;28;20087;-70
2022/01/29 08:46:55;;;;;;;1999.90;999.90;;;;;;;9.18;100.00;102382.78;5052756;28;20025;-70
2022/01/29 08:49:21;;;;;;;1999.90;999.90;;;;;;;9.15;100.00;102390.75;5035823;28;20052;-70
2022/01/29 08:51:47;;;;;;;1999.90;999.90;;;;;;;9.29;100.00;102385.28;5043228;28;20144;-70
2022/01/29 08:54:12;;;;;;;1999.90;999.90;;;;;;;9.15;100.00;102376.63;5053921;28;20032;-71
2022/01/29 08:56:38;;;;;;;1999.90;999.90;;;;;;;9.16;100.00;102371.31;5053841;28;20052;-70
2022/01/29 08:59:03;;;;;;;1999.90;999.90;;;;;;;9.21;100.00;102382.75;5042568;28;20038;-71
2022/01/29 09:01:29;;;;;;;1999.90;999.90;;;;;;;9.15;100.00;102374.84;5033767;28;20078;-70
2022/01/29 09:03:54;;;;;;;1999.90;999.90;;;;;;;9.13;100.00;102373.13;5033614;28;20057;-70
2022/01/29 09:06:20;;;;;;;1999.90;999.90;;;;;;;9.11;100.00;102357.25;5051357;28;20032;-70
2022/01/29 09:08:48;;;;;;;1999.90;999.90;;;;;;;9.13;100.00;102357.22;5052781;28;20492;-71
2022/01/29 09:11:14;;;;;;;1999.90;999.90;;;;;;;9.13;100.00;102358.09;5053712;28;20142;-71
2022/01/29 09:13:40;;;;;;;1999.90;999.90;;;;;;;9.13;100.00;102355.47;5041944;28;20477;-72
2022/01/29 09:16:05;;;;;;;1999.90;999.90;;;;;;;9.10;100.00;102355.50;5032428;28;20038;-71
2022/01/29 09:18:30;;;;;;;1999.90;999.90;;;;;;;9.10;100.00;102355.50;5046530;28;20035;-74
2022/01/29 09:20:56;;;;;;;1999.90;999.90;;;;;;;9.23;100.00;102354.41;5052996;28;20017;-71
2022/01/29 09:23:21;;;;;;;1999.90;999.90;;;;;;;9.30;100.00;102349.91;5036910;28;20037;-71
2022/01/29 09:25:46;;;;;;;1999.90;999.90;;;;;;;9.34;100.00;102356.94;5033526;28;20038;-71
2022/01/29 09:28:13;;;;;;;1999.90;999.90;;;;;;;9.47;100.00;102355.00;5036234;28;20051;-70
2022/01/29 09:30:38;;;;;;;1999.90;999.90;;;;;;;9.41;100.00;102353.31;5044703;28;20091;-71
2022/01/29 09:33:03;;;;;;;1999.90;999.90;;;;;;;9.56;100.00;102345.16;5051565;28;20410;-71
2022/01/29 09:35:30;;;;;;;1999.90;999.90;;;;;;;9.79;100.00;102340.34;5039939;28;20403;-71
2022/01/29 09:37:56;;;;;;;1999.90;999.90;;;;;;;9.61;100.00;102331.81;5048373;28;20025;-71
2022/01/29 09:40:22;;;;;;;1999.90;999.90;;;;;;;9.58;100.00;102342.47;5045393;28;20044;-71
2022/01/29 09:42:50;;;;;;;1999.90;999.90;;;;;;;9.69;100.00;102321.97;5033141;28;20030;-71
2022/01/29 09:45:17;;;;;;;1999.90;999.90;;;;;;;9.69;100.00;102319.31;5036447;28;20029;-69
2022/01/29 09:47:46;;;;;;;1999.90;999.90;;;;;;;9.56;100.00;102318.63;5034368;28;20437;-69
2022/01/29 09:50:33;;;;;;;1999.90;999.90;;;;;;;9.62;100.00;102323.81;5032971;28;20112;-71
2022/01/29 09:53:25;;;;;;;1999.90;999.90;;;;;;;9.78;100.00;102332.41;5031812;28;20029;-69
2022/01/29 09:55:51;;;;;;;1999.90;999.90;;;;;;;9.86;100.00;102318.13;5031724;28;20033;-70
2022/01/29 10:01:38;;;;;;;1999.90;999.90;;;;;;;10.09;100.00;102291.22;5040979;28;20047;-70
2022/01/29 10:04:05;;;;;;;1999.90;999.90;;;;;;;10.06;100.00;102289.47;5032993;28;20049;-70
2022/01/29 10:06:31;;;;;;;1999.90;999.90;;;;;;;10.12;100.00;102296.47;5031772;28;20041;-71
2022/01/29 10:08:59;;;;;;;1999.90;999.90;;;;;;;10.22;100.00;102292.75;5032893;28;20032;-72
2022/01/29 10:11:26;;;;;;;1999.90;999.90;;;;;;;10.24;100.00;102293.63;5032001;28;20488;-69
2022/01/29 10:13:58;;;;;;;1999.90;999.90;;;;;;;10.36;100.00;102288.06;5031377;28;20112;-70
2022/01/29 10:16:26;;;;;;;1999.90;999.90;;;;;;;10.40;100.00;102338.44;5052649;28;20138;-73
2022/01/29 10:19:09;;;;;;;1999.90;999.90;;;;;;;10.40;100.00;102316.34;5051859;28;20017;-73
2022/01/29 10:21:44;;;;;;;1999.90;999.90;;;;;;;10.42;100.00;102311.84;5037732;28;20456;-80
2022/01/29 10:24:11;;;;;;;1999.90;999.90;;;;;;;10.45;100.00;102311.78;5033153;28;20026;-70
2022/01/29 10:26:41;;;;;;;1999.90;999.90;;;;;;;10.62;100.00;102312.38;5040595;28;20025;-81
2022/01/29 10:29:09;;;;;;;1999.90;999.90;;;;;;;10.96;100.00;102312.53;5056020;28;20174;-79
2022/01/29 10:31:55;;;;;;;1999.90;999.90;;;;;;;11.14;100.00;102317.50;5078217;28;20031;-70
2022/01/29 10:34:29;;;;;;;1999.90;999.90;;;;;;;11.24;100.00;102314.59;5067762;28;20063;-71
2022/01/29 10:37:23;;;;;;;1999.90;999.90;;;;;;;11.11;100.00;102312.25;5051386;28;20033;-72
2022/01/29 10:39:56;;;;;;;1999.90;999.90;;;;;;;11.10;100.00;102295.41;5052337;28;20037;-72
2022/01/29 10:42:31;;;;;;;1999.90;999.90;;;;;;;11.19;100.00;102300.50;5052372;28;20504;-73
2022/01/29 10:45:02;;;;;;;1999.90;999.90;;;;;;;11.17;100.00;102290.81;5052855;28;20032;-72
2022/01/29 10:47:28;;;;;;;1999.90;999.90;;;;;;;11.09;100.00;102276.81;5032064;28;20492;-72
2022/01/29 10:49:55;;;;;;;1999.90;999.90;;;;;;;11.19;100.00;102283.69;5033195;28;20026;-71
2022/01/29 10:52:32;;;;;;;1999.90;999.90;;;;;;;11.28;100.00;102287.03;5052834;28;20556;-73
2022/01/29 10:55:16;;;;;;;1999.90;999.90;;;;;;;11.17;100.00;102289.06;5054687;28;20072;-71
2022/01/29 10:57:44;;;;;;;1999.90;999.90;;;;;;;11.34;100.00;102309.94;5054243;28;20104;-71
2022/01/29 11:00:23;;;;;;;1999.90;999.90;;;;;;;11.19;100.00;102278.38;5045373;28;20029;-71
2022/01/29 11:02:50;;;;;;;1999.90;999.90;;;;;;;11.16;100.00;102289.94;5042198;28;20588;-71
2022/01/29 11:05:16;;;;;;;1999.90;999.90;;;;;;;11.07;100.00;102276.84;5052381;28;20037;-73
2022/01/29 11:07:50;;;;;;;1999.90;999.90;;;;;;;11.10;100.00;102252.84;5035766;28;20060;-72
2022/01/29 11:10:16;;;;;;;1999.90;999.90;;;;;;;10.93;100.00;102249.69;5035544;28;20026;-72